Flight Track Log - Related Links

Times and Time Zones

All times are in EDT time to prevent confusion due to time zone crossing. See the DAL1826 flight status page for this flight to view local times or setup timezone preferences in your user account.

Time Position Orientation Groundspeed Altitude Reporting Facility
EDT Latitude Longitude Course Direction KTS MPH feet Rate Location/Type
Thu 01:12:48 PM 33.6347 -84.4778 160° South 462 532 2,500  Level Atlanta Center
Thu 01:13:48 PM 33.6344 -84.5728 270° West 386 444 4,800 2,750 Climbing Atlanta Center
Thu 01:14:48 PM 33.6194 -84.6625 259° West 295 339 8,000 2,650 Climbing Atlanta Center
Thu 01:15:00 PM 33.2318 -84.2287 168° South  Level FlightAware Approximate
Thu 01:15:48 PM 33.5381 -84.6819 191° South 305 351 10,100  Level Atlanta Center
Thu 01:16:00 PM 33.1081 -84.1978 168° South  Level FlightAware Approximate
Thu 01:16:48 PM 33.4589 -84.6364 154° Southeast 302 348 11,400  Level Atlanta Center
Thu 01:17:00 PM 32.9848 -84.1672 164° South  Level FlightAware Approximate
Thu 01:17:48 PM 33.3778 -84.5539 140° Southeast 347 399 12,700  Level Atlanta Center
Thu 01:18:00 PM 32.8656 -84.1168 160° South  Level FlightAware Approximate
Thu 01:18:48 PM 33.2925 -84.4686 140° Southeast 393 452 14,800  Level Atlanta Center
Thu 01:19:48 PM 33.2031 -84.3764 139° Southeast 422 486 16,700 1,650 Climbing Atlanta Center
Thu 01:20:48 PM 33.1094 -84.2844 141° Southeast 433 498 18,100 1,450 Climbing Atlanta Center
Thu 01:21:48 PM 33.0219 -84.1997 141° Southeast 439 505 19,600 1,350 Climbing Atlanta Center
Thu 01:22:48 PM 32.9072 -84.1353 155° Southeast 445 512 20,800 1,300 Climbing Atlanta Center
Thu 01:23:48 PM 32.7819 -84.0858 162° South 460 529 22,200 1,200 Climbing Atlanta Center
Thu 01:24:48 PM 32.6567 -84.0339 161° South 470 541 23,200 1,100 Climbing Atlanta Center
Thu 01:25:48 PM 32.5336 -83.9822 161° South 476 548 24,400 1,300 Climbing Atlanta Center
Thu 01:26:48 PM 32.4083 -83.9331 162° South 481 554 25,800 1,175 Climbing Atlanta Center
Thu 01:29:02 PM 32.1236 -83.8150 161° South 494 568 28,200 1,299 Climbing Jacksonville Center
Thu 01:30:02 PM 31.9986 -83.7647 161° South 484 557 30,000 1,350 Climbing Jacksonville Center
Thu 01:31:02 PM 31.8653 -83.7072 160° South 467 537 30,900 450 Climbing Jacksonville Center
Thu 01:32:02 PM 31.7425 -83.6547 160° South 469 540 30,900 50 Level Jacksonville Center
Thu 01:33:02 PM 31.6258 -83.6100 162° South 477 549 31,000 50 Climbing Jacksonville Center
Thu 01:34:02 PM 31.5050 -83.5675 163° South 477 549 31,000  Level Jacksonville Center
Thu 01:35:02 PM 31.3736 -83.5156 161° South 472 543 31,000 -50 Level Jacksonville Center
Thu 01:36:02 PM 31.2508 -83.4661 161° South 467 537 30,900  Descending Jacksonville Center
Thu 01:37:02 PM 31.1297 -83.4192 162° South 461 531 31,000  Climbing Jacksonville Center
Thu 01:38:02 PM 31.0047 -83.3678 161° South 461 531 30,900  Descending Jacksonville Center
Thu 01:39:02 PM 30.8817 -83.3186 161° South 461 531 31,000  Climbing Jacksonville Center
Thu 01:40:02 PM 30.7608 -83.2794 164° South 461 531 30,900 -50 Descending Jacksonville Center
Thu 01:41:02 PM 30.6292 -83.2836 182° South 456 525 30,900  Level Jacksonville Center
Thu 01:42:02 PM 30.4997 -83.2928 183° South 462 532 30,900  Level Jacksonville Center
Thu 01:43:02 PM 30.3681 -83.3139 188° South 472 543 30,900  Level Jacksonville Center
Thu 01:44:02 PM 30.2386 -83.3375 189° South 472 543 30,900  Level Jacksonville Center
Thu 01:45:02 PM 30.1050 -83.3583 188° South 484 557 30,900  Level Jacksonville Center
Thu 01:46:02 PM 29.9756 -83.3386 172° South 472 543 30,900  Level Jacksonville Center
Thu 01:47:02 PM 29.8483 -83.2950 163° South 472 543 30,900  Level Jacksonville Center
Thu 01:48:02 PM 29.7358 -83.2442 159° South 472 543 30,900  Level Jacksonville Center
Thu 01:49:02 PM 29.6128 -83.1936 160° South 479 551 30,900  Level Jacksonville Center
Thu 01:50:02 PM 29.4875 -83.1408 160° South 479 551 30,900  Level Jacksonville Center
Thu 01:51:02 PM 29.3667 -83.0903 160° South 474 545 30,900  Level Jacksonville Center
Thu 01:52:02 PM 29.2456 -83.0378 159° South 469 540 30,900  Level Jacksonville Center
Thu 01:53:02 PM 29.1244 -82.9900 161° South 469 540 30,900  Level Jacksonville Center
Thu 01:54:02 PM 29.0014 -82.9378 160° South 469 540 30,900  Level Jacksonville Center
Thu 01:55:02 PM 28.8761 -82.8856 160° South 469 540 30,900  Level Jacksonville Center
Thu 01:56:02 PM 28.7531 -82.8358 160° South 469 540 30,900  Level Jacksonville Center
Thu 01:57:02 PM 28.6194 -82.7839 161° South 469 540 30,900  Level Jacksonville Center
Thu 01:58:02 PM 28.4983 -82.7319 159° South 469 540 30,900  Level Jacksonville Center
Thu 02:00:06 PM 28.2594 -82.6353 160° South 479 551 30,900  Level Miami Center
Thu 02:01:06 PM 28.1322 -82.5817 160° South 479 551 30,900  Level Miami Center
Thu 02:02:06 PM 28.0133 -82.5333 160° South 479 551 30,900  Level Miami Center
Thu 02:03:06 PM 27.8878 -82.4872 162° South 474 545 30,900  Level Miami Center
Thu 02:04:06 PM 27.7542 -82.4383 162° South 474 545 30,900 50 Level Miami Center
Thu 02:05:06 PM 27.6233 -82.4203 173° South 474 545 31,000  Climbing Miami Center
Thu 02:06:06 PM 27.5067 -82.4169 179° South 468 539 30,900 -50 Descending Miami Center
Thu 02:07:06 PM 27.3756 -82.4106 178° South 475 547 30,900  Level Miami Center
Thu 02:08:06 PM 27.2336 -82.4086 179° South 468 539 30,900  Level Miami Center
Thu 02:09:06 PM 27.1003 -82.4044 178° South 473 544 30,900 -150 Level Miami Center
Thu 02:10:06 PM 26.9647 -82.4003 178° South 473 544 30,600 -750 Descending Miami Center
Thu 02:11:06 PM 26.8356 -82.3942 178° South 478 550 29,400 -1,100 Descending Miami Center
Thu 02:12:06 PM 26.7044 -82.3881 178° South 473 544 28,400 -1,150 Descending Miami Center
Thu 02:13:06 PM 26.5756 -82.3750 175° South 473 544 27,100 -1,700 Descending Miami Center
Thu 02:14:06 PM 26.4614 -82.3000 150° Southeast 461 531 25,000 -1,200 Descending Miami Center
Thu 02:15:06 PM 26.3575 -82.2303 149° Southeast 461 531 24,700 -500 Descending Miami Center
Thu 02:16:06 PM 26.2681 -82.1614 145° Southeast 407 468 24,000 -700 Descending Miami Center
Thu 02:17:06 PM 26.2283 -82.0533 112° Southeast 376 433 23,300 -1,100 Descending Miami Center
Thu 02:18:06 PM 26.1983 -81.9525 108° East 376 433 21,800 -1,650 Descending Miami Center
Thu 02:19:06 PM 26.1667 -81.8400 107° East 376 433 20,000 -1,550 Descending Miami Center
Thu 02:20:06 PM 26.1369 -81.7369 108° East 365 420 18,700 -1,450 Descending Miami Center
Thu 02:21:06 PM 26.1028 -81.6314 110° East 335 386 17,100 -1,500 Descending Miami Center
Thu 02:22:06 PM 26.0744 -81.5381 109° East 327 376 15,700 -1,500 Descending Miami Center
Thu 02:23:06 PM 26.0439 -81.4489 111° Southeast 316 364 14,100 -1,650 Descending Miami Center
Thu 02:24:06 PM 26.0175 -81.3578 108° East 309 356 12,400 -1,700 Descending Miami Center
Thu 02:25:06 PM 25.9906 -81.2806 111° Southeast 303 349 10,700 -1,550 Descending Miami Center
Thu 02:26:06 PM 25.9658 -81.1964 108° East 292 336 9,300 -1,350 Descending Miami Center
Thu 02:27:06 PM 25.9369 -81.1122 111° Southeast 292 336 8,000 -650 Descending Miami Center
Thu 02:28:06 PM 25.9122 -81.0306 109° East 292 336 8,000  Level Miami Center
Thu 02:29:06 PM 25.9147 -80.9406 88° East 281 323 8,000  Level Miami Center
Thu 02:30:06 PM 25.9236 -80.8531 84° East 281 323 8,000 -435 Level Miami Center
Thu 02:31:24 PM 25.9514 -80.7500 73° East 240 276 7,000 -850 Descending Miami Center
Thu 02:32:06 PM 25.9672 -80.7044 69° East 250 288 6,300 -588 Descending Miami Center
Thu 02:33:06 PM 25.9919 -80.6358 68° East 243 280 6,000 -500 Descending Miami Center
Thu 02:34:06 PM 26.0122 -80.5742 70° East 230 265 5,300 -500 Descending Miami Center
Thu 02:35:06 PM 26.0492 -80.5244 50° Northeast 213 245 5,000 -133 Descending Miami Center
Thu 02:35:36 PM 26.0664 -80.4972 55° Northeast 186 214 5,100  Climbing Miami Center
Thu 02:36:06 PM 26.0794 -80.4767 55° Northeast 199 229 5,000 -655 Descending Miami Center
Thu 02:37:26 PM 26.0772 -80.4028 92° East 175 201 3,900 -851 Descending Miami Center
Thu 02:38:27 PM 26.0744 -80.3403 93° East 181 208 3,000 -885 Descending Miami Center

Login

Don't have an account? Register now (free) for customized features, flight alerts, and more!